Time;durP1;ratioP1;P1;durP2;ratioP2;P2;SDS_P1;SDS_P2;PMS_P1;PMS_P2;Temp;Humidity;BMP_temperature;BMP_pressure;BME280_temperature;BME280_humidity;BME280_pressure;Samples;Min_cycle;Max_cycle;Signal;HPM_P1;HPM_P2
2024/01/10 00:02:13;;;;;;;4.88;3.08;;;;;;;;;;5016389;28;20140;-86
2024/01/10 00:04:38;;;;;;;5.43;3.13;;;;;;;;;;5016436;28;20017;-85
2024/01/10 00:07:04;;;;;;;4.25;3.22;;;;;;;;;;5016443;28;20026;-85
2024/01/10 00:09:30;;;;;;;5.03;2.92;;;;;;;;;;5015747;28;20058;-85
2024/01/10 00:11:55;;;;;;;5.53;3.40;;;;;;;;;;5014780;28;20029;-84
2024/01/10 00:14:20;;;;;;;5.80;3.67;;;;;;;;;;5014949;28;20061;-85
2024/01/10 00:16:45;;;;;;;7.68;3.45;;;;;;;;;;5016428;28;20030;-85
2024/01/10 00:19:10;;;;;;;7.47;3.80;;;;;;;;;;5016202;28;20029;-85
2024/01/10 00:21:36;;;;;;;9.57;3.88;;;;;;;;;;5016567;28;20037;-84
2024/01/10 00:24:01;;;;;;;5.70;3.03;;;;;;;;;;5016128;28;20052;-85
2024/01/10 00:26:26;;;;;;;4.97;3.47;;;;;;;;;;5015805;28;20026;-84
2024/01/10 00:28:51;;;;;;;5.15;3.42;;;;;;;;;;5016174;28;20022;-85
2024/01/10 00:31:17;;;;;;;6.50;3.50;;;;;;;;;;5016179;28;20120;-84
2024/01/10 00:33:42;;;;;;;4.85;3.10;;;;;;;;;;5016313;28;20033;-84
2024/01/10 00:36:07;;;;;;;6.78;3.20;;;;;;;;;;5016767;28;20470;-86
2024/01/10 00:38:33;;;;;;;7.65;4.13;;;;;;;;;;5017014;28;20467;-87
2024/01/10 00:40:58;;;;;;;7.60;3.40;;;;;;;;;;5016487;28;20037;-86
2024/01/10 00:43:24;;;;;;;5.15;3.00;;;;;;;;;;5014773;28;20032;-86
2024/01/10 00:45:49;;;;;;;7.93;3.95;;;;;;;;;;5017624;28;20102;-86
2024/01/10 00:48:14;;;;;;;8.32;3.78;;;;;;;;;;5018219;28;20048;-87
2024/01/10 00:50:39;;;;;;;5.13;3.50;;;;;;;;;;5020175;28;20481;-87
2024/01/10 00:53:04;;;;;;;6.35;3.83;;;;;;;;;;5018280;28;20099;-86
2024/01/10 00:55:30;;;;;;;6.63;3.50;;;;;;;;;;5018977;28;20101;-85
2024/01/10 00:57:55;;;;;;;4.45;3.05;;;;;;;;;;5018387;28;20030;-87
2024/01/10 01:00:20;;;;;;;5.90;3.35;;;;;;;;;;5019693;28;20451;-85
2024/01/10 01:02:46;;;;;;;6.60;3.78;;;;;;;;;;5016005;28;20323;-85
2024/01/10 01:05:11;;;;;;;9.45;3.63;;;;;;;;;;5021396;28;20025;-86
2024/01/10 01:07:36;;;;;;;8.77;3.58;;;;;;;;;;5028918;28;20084;-86
2024/01/10 01:10:02;;;;;;;5.97;3.65;;;;;;;;;;5021841;28;20073;-86
2024/01/10 01:12:28;;;;;;;7.15;3.47;;;;;;;;;;5025897;28;20025;-85
2024/01/10 01:14:53;;;;;;;6.43;3.30;;;;;;;;;;5029428;28;20061;-86
2024/01/10 01:17:18;;;;;;;5.63;3.67;;;;;;;;;;5017111;28;20402;-86
2024/01/10 01:19:43;;;;;;;4.68;3.10;;;;;;;;;;5015779;28;20507;-86
2024/01/10 01:22:08;;;;;;;5.43;3.30;;;;;;;;;;5015166;28;20026;-86
2024/01/10 01:24:34;;;;;;;5.10;3.13;;;;;;;;;;5014112;28;20022;-84
2024/01/10 01:26:59;;;;;;;6.45;3.65;;;;;;;;;;5012596;28;20136;-83
2024/01/10 01:29:24;;;;;;;5.20;3.40;;;;;;;;;;5013917;28;20022;-83
2024/01/10 01:31:50;;;;;;;4.88;3.35;;;;;;;;;;5013700;28;20135;-85
2024/01/10 01:34:15;;;;;;;7.28;3.60;;;;;;;;;;5013690;28;20470;-86
2024/01/10 01:36:40;;;;;;;7.80;3.72;;;;;;;;;;5013364;28;20018;-84
2024/01/10 01:39:05;;;;;;;8.80;3.90;;;;;;;;;;5013665;28;20109;-83
2024/01/10 01:41:31;;;;;;;5.40;3.60;;;;;;;;;;5014100;28;20022;-86
2024/01/10 01:43:56;;;;;;;5.20;3.38;;;;;;;;;;5014200;28;20022;-85
2024/01/10 01:46:21;;;;;;;5.75;3.60;;;;;;;;;;5014113;28;20459;-84
2024/01/10 01:48:47;;;;;;;7.07;3.40;;;;;;;;;;5013748;28;20033;-84
2024/01/10 01:51:14;;;;;;;5.07;3.53;;;;;;;;;;5013965;28;20104;-84
2024/01/10 01:53:39;;;;;;;8.93;3.30;;;;;;;;;;5013894;28;20022;-85
2024/01/10 01:56:08;;;;;;;7.15;3.92;;;;;;;;;;5013899;28;20489;-85
2024/01/10 01:58:35;;;;;;;6.30;3.47;;;;;;;;;;5013929;28;20062;-85
2024/01/10 02:01:02;;;;;;;5.75;3.85;;;;;;;;;;5012071;28;20064;-86
2024/01/10 02:03:27;;;;;;;5.88;3.65;;;;;;;;;;5013713;28;20033;-85
2024/01/10 02:05:53;;;;;;;8.38;3.78;;;;;;;;;;5014215;28;20034;-85
2024/01/10 02:08:18;;;;;;;7.47;3.67;;;;;;;;;;5012286;28;20045;-86
2024/01/10 02:10:44;;;;;;;7.68;4.65;;;;;;;;;;5013566;28;20478;-85
2024/01/10 02:13:10;;;;;;;9.85;4.45;;;;;;;;;;5011506;28;20014;-86
2024/01/10 02:15:37;;;;;;;9.45;5.00;;;;;;;;;;5012114;28;20030;-86
2024/01/10 02:18:02;;;;;;;7.05;4.25;;;;;;;;;;5013319;28;20164;-85
2024/01/10 02:20:27;;;;;;;9.48;4.10;;;;;;;;;;5013451;28;20042;-85
2024/01/10 02:22:53;;;;;;;8.07;4.55;;;;;;;;;;5012930;28;20034;-85
2024/01/10 02:25:18;;;;;;;7.22;4.05;;;;;;;;;;5013638;28;20080;-86
2024/01/10 02:27:43;;;;;;;7.75;4.53;;;;;;;;;;5013164;28;20022;-86
2024/01/10 02:30:09;;;;;;;6.55;4.20;;;;;;;;;;5013120;28;20049;-86
2024/01/10 02:32:35;;;;;;;7.63;4.43;;;;;;;;;;5013460;28;20083;-85
2024/01/10 02:35:00;;;;;;;8.40;4.55;;;;;;;;;;5012850;28;20105;-86
2024/01/10 02:37:26;;;;;;;6.85;4.10;;;;;;;;;;5013638;28;20029;-87
2024/01/10 02:39:51;;;;;;;9.77;5.57;;;;;;;;;;5013520;28;20014;-86
2024/01/10 02:42:16;;;;;;;6.38;4.40;;;;;;;;;;5013639;28;20081;-86
2024/01/10 02:44:41;;;;;;;8.18;4.90;;;;;;;;;;5013923;28;20022;-86
2024/01/10 02:47:07;;;;;;;9.55;5.50;;;;;;;;;;5013602;28;20328;-86
2024/01/10 02:49:32;;;;;;;9.48;5.10;;;;;;;;;;5012614;28;20124;-77
2024/01/10 02:51:58;;;;;;;12.73;5.40;;;;;;;;;;5011664;28;20033;-77
2024/01/10 02:54:23;;;;;;;9.75;5.40;;;;;;;;;;5011360;28;20041;-76
2024/01/10 02:56:48;;;;;;;8.05;4.72;;;;;;;;;;5011103;28;20535;-77
2024/01/10 02:59:13;;;;;;;8.38;4.80;;;;;;;;;;4993854;28;20026;-77
2024/01/10 03:01:38;;;;;;;8.20;5.05;;;;;;;;;;5011256;28;20109;-76
2024/01/10 03:04:04;;;;;;;9.80;5.82;;;;;;;;;;5011065;28;20067;-77
2024/01/10 03:06:29;;;;;;;8.98;5.43;;;;;;;;;;5014319;28;20029;-76
2024/01/10 03:08:54;;;;;;;9.32;4.95;;;;;;;;;;5017642;28;20439;-75
2024/01/10 03:11:19;;;;;;;8.45;5.10;;;;;;;;;;5017720;28;20022;-78
2024/01/10 03:13:45;;;;;;;8.55;5.03;;;;;;;;;;5017723;28;20034;-78
2024/01/10 03:16:11;;;;;;;9.38;5.30;;;;;;;;;;5017418;28;20018;-77
2024/01/10 03:18:36;;;;;;;10.63;5.93;;;;;;;;;;5017818;28;20104;-78
2024/01/10 03:21:01;;;;;;;8.70;5.43;;;;;;;;;;5017079;28;20113;-78
2024/01/10 03:23:27;;;;;;;10.15;5.70;;;;;;;;;;5017497;28;20034;-78
2024/01/10 03:25:52;;;;;;;10.18;5.53;;;;;;;;;;5017756;28;20513;-78
2024/01/10 03:28:17;;;;;;;13.02;5.43;;;;;;;;;;5017036;28;20392;-77
2024/01/10 03:30:43;;;;;;;10.48;5.93;;;;;;;;;;5017715;28;20083;-78
2024/01/10 03:33:08;;;;;;;8.13;5.22;;;;;;;;;;5017418;28;20030;-78
2024/01/10 03:35:33;;;;;;;10.80;6.55;;;;;;;;;;5017477;28;20355;-79
2024/01/10 03:37:59;;;;;;;8.52;5.65;;;;;;;;;;5017705;28;20130;-78
2024/01/10 03:40:24;;;;;;;10.32;5.78;;;;;;;;;;5017370;28;20030;-77
2024/01/10 03:42:49;;;;;;;11.50;7.07;;;;;;;;;;5017140;28;20022;-78
2024/01/10 03:45:17;;;;;;;12.02;6.78;;;;;;;;;;5017985;28;20148;-78
2024/01/10 03:47:42;;;;;;;9.15;5.70;;;;;;;;;;5016562;28;20025;-77
2024/01/10 03:50:08;;;;;;;12.00;6.25;;;;;;;;;;5016350;28;20037;-76
2024/01/10 03:52:33;;;;;;;11.55;6.43;;;;;;;;;;5017347;28;20458;-77
2024/01/10 03:54:58;;;;;;;11.15;6.50;;;;;;;;;;5017297;28;20026;-76
2024/01/10 03:57:24;;;;;;;10.55;6.38;;;;;;;;;;5017237;28;20434;-76
2024/01/10 03:59:49;;;;;;;8.48;5.20;;;;;;;;;;5017548;28;20380;-78
2024/01/10 04:02:14;;;;;;;12.25;6.30;;;;;;;;;;5017273;28;20481;-78
2024/01/10 04:04:39;;;;;;;9.15;6.25;;;;;;;;;;5017807;28;20220;-78
2024/01/10 04:07:05;;;;;;;13.27;6.28;;;;;;;;;;5017527;28;20029;-78
2024/01/10 04:09:30;;;;;;;9.63;5.95;;;;;;;;;;5017335;28;20054;-77
2024/01/10 04:11:55;;;;;;;12.48;6.65;;;;;;;;;;5017531;28;20014;-77
2024/01/10 04:14:21;;;;;;;11.90;6.45;;;;;;;;;;5017678;28;20166;-78
2024/01/10 04:16:46;;;;;;;9.48;5.65;;;;;;;;;;5016747;28;20014;-77
2024/01/10 04:19:11;;;;;;;11.20;5.82;;;;;;;;;;5014228;28;20014;-78
2024/01/10 04:21:36;;;;;;;9.50;5.78;;;;;;;;;;5012799;28;20125;-78
2024/01/10 04:24:01;;;;;;;10.68;6.43;;;;;;;;;;5014103;28;20029;-77
2024/01/10 04:26:27;;;;;;;8.43;5.68;;;;;;;;;;5014555;28;20041;-78
2024/01/10 04:28:52;;;;;;;8.40;5.40;;;;;;;;;;5013881;28;20451;-78
2024/01/10 04:31:17;;;;;;;9.40;5.68;;;;;;;;;;5013764;28;20470;-78
2024/01/10 04:33:42;;;;;;;11.55;5.60;;;;;;;;;;5014013;28;20092;-77
2024/01/10 04:36:07;;;;;;;8.30;5.75;;;;;;;;;;5013551;28;20046;-77
2024/01/10 04:38:33;;;;;;;8.65;5.55;;;;;;;;;;5012373;28;20120;-77
2024/01/10 04:40:58;;;;;;;9.25;5.93;;;;;;;;;;5013900;28;20022;-77
2024/01/10 04:43:24;;;;;;;8.98;5.47;;;;;;;;;;5013738;28;20101;-78
2024/01/10 04:45:49;;;;;;;10.60;6.30;;;;;;;;;;5013545;28;20026;-77
2024/01/10 04:48:14;;;;;;;11.45;6.18;;;;;;;;;;5013672;28;20041;-77
2024/01/10 04:50:39;;;;;;;9.52;6.32;;;;;;;;;;5012070;28;20312;-78
2024/01/10 04:53:04;;;;;;;10.70;5.93;;;;;;;;;;5013435;28;20382;-78
2024/01/10 04:55:30;;;;;;;10.50;6.05;;;;;;;;;;5013498;28;20056;-78
2024/01/10 04:57:55;;;;;;;8.13;5.40;;;;;;;;;;5013449;28;20045;-76
2024/01/10 05:00:20;;;;;;;11.80;6.47;;;;;;;;;;5013040;28;20057;-78
2024/01/10 05:02:45;;;;;;;12.18;6.20;;;;;;;;;;5013108;28;20149;-77
2024/01/10 05:05:10;;;;;;;9.05;5.53;;;;;;;;;;5013289;28;20026;-77
2024/01/10 05:07:36;;;;;;;10.43;6.25;;;;;;;;;;5013151;28;20049;-77
2024/01/10 05:10:01;;;;;;;15.80;6.55;;;;;;;;;;5013283;28;20054;-76
2024/01/10 05:12:26;;;;;;;15.52;6.55;;;;;;;;;;5013013;28;20044;-77
2024/01/10 05:14:52;;;;;;;10.93;6.40;;;;;;;;;;5013155;28;20094;-78
2024/01/10 05:17:17;;;;;;;11.48;6.15;;;;;;;;;;5013082;28;20390;-78
2024/01/10 05:19:42;;;;;;;10.50;5.82;;;;;;;;;;5013186;28;20526;-78
2024/01/10 05:22:08;;;;;;;12.60;6.95;;;;;;;;;;5011281;28;20470;-78
2024/01/10 05:24:33;;;;;;;12.75;6.32;;;;;;;;;;5012519;28;20022;-77
2024/01/10 05:26:58;;;;;;;13.48;6.90;;;;;;;;;;5012866;28;20142;-77
2024/01/10 05:29:24;;;;;;;10.95;6.45;;;;;;;;;;5012462;28;20453;-78
2024/01/10 05:31:49;;;;;;;10.30;6.28;;;;;;;;;;5010538;28;20367;-78
2024/01/10 05:34:14;;;;;;;11.38;6.68;;;;;;;;;;5012651;28;20112;-76
2024/01/10 05:36:40;;;;;;;11.07;6.60;;;;;;;;;;5011918;28;20033;-77
2024/01/10 05:39:05;;;;;;;9.80;5.65;;;;;;;;;;5012579;28;20026;-77
2024/01/10 05:41:30;;;;;;;9.25;5.88;;;;;;;;;;5012190;28;20500;-77
2024/01/10 05:43:55;;;;;;;11.60;6.93;;;;;;;;;;5012447;28;20185;-77
2024/01/10 05:46:21;;;;;;;10.63;6.10;;;;;;;;;;5010891;28;20013;-77
2024/01/10 05:48:46;;;;;;;11.88;6.88;;;;;;;;;;5012562;28;20036;-76
2024/01/10 05:51:12;;;;;;;10.98;6.38;;;;;;;;;;5012439;28;20037;-77
2024/01/10 05:53:37;;;;;;;13.15;6.20;;;;;;;;;;5012235;28;20073;-77
2024/01/10 05:56:03;;;;;;;14.57;7.15;;;;;;;;;;5011797;28;20498;-76
2024/01/10 05:58:28;;;;;;;10.75;6.00;;;;;;;;;;5011999;28;20121;-76
2024/01/10 06:00:54;;;;;;;11.82;6.78;;;;;;;;;;5010813;28;20032;-76
2024/01/10 06:03:20;;;;;;;12.18;6.63;;;;;;;;;;5012099;28;20025;-76
2024/01/10 06:05:45;;;;;;;12.88;6.38;;;;;;;;;;5011910;28;20022;-78
2024/01/10 06:08:10;;;;;;;9.88;5.85;;;;;;;;;;5011835;28;20018;-76
2024/01/10 06:10:35;;;;;;;8.75;5.70;;;;;;;;;;5011648;28;20014;-77
2024/01/10 06:13:01;;;;;;;9.07;5.75;;;;;;;;;;5011577;28;20026;-78
2024/01/10 06:15:26;;;;;;;10.02;6.03;;;;;;;;;;5012236;28;20423;-77
2024/01/10 06:17:51;;;;;;;9.88;5.85;;;;;;;;;;5011342;28;20097;-77
2024/01/10 06:20:18;;;;;;;21.00;10.20;;;;;;;;;;5011868;28;20030;-77
2024/01/10 06:22:43;;;;;;;15.77;8.38;;;;;;;;;;5011583;28;20053;-77
2024/01/10 06:25:08;;;;;;;10.23;6.28;;;;;;;;;;5011798;28;20026;-77
2024/01/10 06:27:33;;;;;;;10.05;6.18;;;;;;;;;;5011674;28;20084;-78
2024/01/10 06:29:59;;;;;;;13.48;8.13;;;;;;;;;;5011522;28;20025;-77
2024/01/10 06:32:24;;;;;;;9.73;6.10;;;;;;;;;;5011690;28;20018;-77
2024/01/10 06:34:49;;;;;;;9.82;6.40;;;;;;;;;;5011294;28;20049;-78
2024/01/10 06:37:15;;;;;;;8.85;5.65;;;;;;;;;;5011475;28;20347;-77
2024/01/10 06:39:41;;;;;;;12.48;5.65;;;;;;;;;;5011765;28;20063;-77
2024/01/10 06:42:08;;;;;;;10.07;6.10;;;;;;;;;;5011144;28;20087;-76
2024/01/10 06:44:33;;;;;;;7.55;5.57;;;;;;;;;;5011319;28;20042;-76
2024/01/10 06:46:59;;;;;;;9.13;5.82;;;;;;;;;;5011110;28;20222;-78
2024/01/10 06:49:24;;;;;;;9.95;5.68;;;;;;;;;;5011122;28;20132;-77
2024/01/10 06:51:49;;;;;;;20.40;9.25;;;;;;;;;;5011214;28;20022;-78
2024/01/10 06:54:15;;;;;;;11.98;6.75;;;;;;;;;;5011433;28;20069;-77
2024/01/10 06:56:41;;;;;;;10.65;6.30;;;;;;;;;;5009539;28;20106;-77
2024/01/10 06:59:06;;;;;;;12.00;6.07;;;;;;;;;;5011201;28;20581;-78
2024/01/10 07:01:31;;;;;;;10.80;5.45;;;;;;;;;;5011206;28;20037;-76
2024/01/10 07:03:56;;;;;;;12.95;6.07;;;;;;;;;;5011063;28;20100;-76
2024/01/10 07:06:22;;;;;;;9.45;6.30;;;;;;;;;;5011560;28;20108;-76
2024/01/10 07:08:49;;;;;;;8.55;5.63;;;;;;;;;;5011034;28;20374;-76
2024/01/10 07:11:14;;;;;;;14.45;7.50;;;;;;;;;;5011432;28;20076;-77
2024/01/10 07:13:40;;;;;;;12.65;7.68;;;;;;;;;;5011393;28;20029;-76
2024/01/10 07:16:06;;;;;;;12.95;7.10;;;;;;;;;;5010916;28;20099;-76
2024/01/10 07:18:31;;;;;;;9.52;6.03;;;;;;;;;;5011052;28;20034;-77
2024/01/10 07:20:56;;;;;;;13.40;6.75;;;;;;;;;;5010974;28;20026;-77
2024/01/10 07:23:22;;;;;;;12.73;6.00;;;;;;;;;;5011157;28;20057;-76
2024/01/10 07:25:48;;;;;;;11.27;5.90;;;;;;;;;;5009733;28;20051;-77
2024/01/10 07:28:13;;;;;;;10.18;5.65;;;;;;;;;;5010840;28;20513;-76
2024/01/10 07:30:38;;;;;;;17.98;8.25;;;;;;;;;;5011190;28;20100;-76
2024/01/10 07:33:03;;;;;;;10.80;6.32;;;;;;;;;;5010997;28;20087;-76
2024/01/10 07:35:30;;;;;;;14.82;6.40;;;;;;;;;;5010621;28;20096;-76
2024/01/10 07:37:55;;;;;;;11.82;6.47;;;;;;;;;;5010650;28;20030;-76
2024/01/10 07:40:20;;;;;;;11.93;6.20;;;;;;;;;;5011110;28;20033;-76
2024/01/10 07:42:46;;;;;;;9.63;6.00;;;;;;;;;;5010446;28;20026;-75
2024/01/10 07:45:11;;;;;;;10.18;6.18;;;;;;;;;;5011226;28;20066;-75
2024/01/10 07:47:37;;;;;;;10.32;5.65;;;;;;;;;;5010565;28;20098;-74
2024/01/10 07:50:06;;;;;;;10.10;6.30;;;;;;;;;;5010530;28;20022;-74
2024/01/10 07:52:32;;;;;;;12.93;6.50;;;;;;;;;;5012537;28;20018;-75
2024/01/10 07:54:57;;;;;;;12.93;6.35;;;;;;;;;;5014512;28;20076;-76
2024/01/10 07:57:23;;;;;;;13.35;7.07;;;;;;;;;;5013465;28;20030;-75
2024/01/10 07:59:48;;;;;;;8.85;5.95;;;;;;;;;;5013714;28;20100;-76
2024/01/10 08:02:13;;;;;;;10.90;6.25;;;;;;;;;;5014108;28;20125;-76
2024/01/10 08:04:38;;;;;;;14.77;6.55;;;;;;;;;;5013762;28;20029;-76
2024/01/10 08:07:04;;;;;;;10.25;6.25;;;;;;;;;;5013608;28;20462;-76
2024/01/10 08:09:29;;;;;;;9.82;5.40;;;;;;;;;;5014172;28;20144;-77
2024/01/10 08:11:54;;;;;;;10.38;5.85;;;;;;;;;;5013669;28;20029;-77
2024/01/10 08:14:19;;;;;;;13.18;6.70;;;;;;;;;;5013792;28;20037;-76
2024/01/10 08:16:45;;;;;;;15.70;6.55;;;;;;;;;;5013716;28;20022;-77
2024/01/10 08:19:11;;;;;;;14.50;7.10;;;;;;;;;;5014253;28;20049;-76
2024/01/10 08:21:36;;;;;;;11.35;6.63;;;;;;;;;;5013604;28;20021;-76
2024/01/10 08:24:02;;;;;;;26.55;10.18;;;;;;;;;;5013524;28;20029;-80
2024/01/10 08:26:28;;;;;;;12.98;7.00;;;;;;;;;;5012512;28;20119;-76
2024/01/10 08:28:53;;;;;;;10.95;6.22;;;;;;;;;;5012824;28;20051;-76
2024/01/10 08:31:18;;;;;;;10.98;6.22;;;;;;;;;;5013687;28;20105;-77
2024/01/10 08:33:44;;;;;;;10.35;6.15;;;;;;;;;;5013912;28;20401;-77
2024/01/10 08:36:10;;;;;;;13.70;6.10;;;;;;;;;;5013371;28;20101;-76
2024/01/10 08:38:35;;;;;;;10.63;5.80;;;;;;;;;;5013431;28;20129;-77
2024/01/10 08:41:01;;;;;;;14.15;5.97;;;;;;;;;;5013354;28;20372;-77
2024/01/10 08:43:26;;;;;;;10.10;6.10;;;;;;;;;;5013234;28;20446;-76
2024/01/10 08:45:51;;;;;;;10.45;6.20;;;;;;;;;;5012133;28;20032;-77
2024/01/10 08:48:17;;;;;;;15.38;6.13;;;;;;;;;;5012141;28;20356;-75
2024/01/10 08:50:42;;;;;;;11.23;5.72;;;;;;;;;;5012891;28;20097;-76
2024/01/10 08:53:09;;;;;;;11.98;6.07;;;;;;;;;;5013116;28;20487;-76
2024/01/10 08:55:36;;;;;;;12.52;5.43;;;;;;;;;;5012502;28;20488;-77
2024/01/10 08:58:02;;;;;;;11.48;6.40;;;;;;;;;;5012484;28;20323;-75
2024/01/10 09:00:27;;;;;;;10.25;5.32;;;;;;;;;;5012866;28;20021;-75
2024/01/10 09:02:53;;;;;;;13.00;6.75;;;;;;;;;;5012798;28;20496;-75
2024/01/10 09:05:18;;;;;;;8.40;5.05;;;;;;;;;;5010868;28;20544;-75
2024/01/10 09:07:43;;;;;;;10.68;5.50;;;;;;;;;;5012784;28;20109;-74
2024/01/10 09:10:09;;;;;;;12.45;5.85;;;;;;;;;;5012262;28;20486;-75
2024/01/10 09:12:34;;;;;;;12.98;6.13;;;;;;;;;;5012950;28;20422;-75
2024/01/10 09:15:00;;;;;;;7.82;5.10;;;;;;;;;;5012174;28;20048;-78
2024/01/10 09:17:25;;;;;;;8.88;4.93;;;;;;;;;;5012389;28;20030;-75
2024/01/10 09:19:51;;;;;;;10.75;5.72;;;;;;;;;;5012025;28;20022;-74
2024/01/10 09:22:16;;;;;;;9.57;5.22;;;;;;;;;;5012468;28;20104;-75
2024/01/10 09:24:41;;;;;;;9.55;5.07;;;;;;;;;;5011161;28;20057;-77
2024/01/10 09:27:07;;;;;;;8.38;5.22;;;;;;;;;;5012642;28;20114;-76
2024/01/10 09:29:32;;;;;;;8.52;4.75;;;;;;;;;;5012716;28;20054;-78
2024/01/10 09:31:58;;;;;;;8.30;4.95;;;;;;;;;;5012781;28;20446;-75
2024/01/10 09:34:23;;;;;;;8.32;5.28;;;;;;;;;;5012714;28;20033;-77
2024/01/10 09:36:48;;;;;;;11.77;4.72;;;;;;;;;;5012342;28;20022;-78
2024/01/10 09:39:13;;;;;;;9.50;4.78;;;;;;;;;;5011175;28;20041;-79
2024/01/10 09:41:50;;;;;;;8.10;5.10;;;;;;;;;;5011533;28;20036;-77
2024/01/10 09:44:17;;;;;;;7.80;4.72;;;;;;;;;;5011305;28;20418;-77
2024/01/10 09:46:43;;;;;;;8.70;4.45;;;;;;;;;;5012282;28;20046;-77
2024/01/10 09:49:09;;;;;;;5.88;4.25;;;;;;;;;;5012287;28;20056;-75
2024/01/10 09:51:34;;;;;;;13.52;5.05;;;;;;;;;;5012345;28;20045;-78
2024/01/10 09:54:01;;;;;;;8.50;5.25;;;;;;;;;;5012318;28;20053;-76
2024/01/10 09:56:26;;;;;;;7.70;4.53;;;;;;;;;;5012138;28;20105;-78
2024/01/10 09:58:53;;;;;;;6.50;4.35;;;;;;;;;;5011996;28;20108;-76
2024/01/10 10:01:19;;;;;;;9.73;4.88;;;;;;;;;;5010430;28;20079;-76
2024/01/10 10:03:45;;;;;;;7.10;4.65;;;;;;;;;;5012180;28;20117;-77
2024/01/10 10:06:11;;;;;;;8.13;4.50;;;;;;;;;;5012043;28;20114;-77
2024/01/10 10:08:38;;;;;;;14.63;4.70;;;;;;;;;;5011138;28;20452;-77
2024/01/10 10:11:03;;;;;;;10.02;5.03;;;;;;;;;;5010499;28;20060;-76
2024/01/10 10:13:29;;;;;;;8.38;5.00;;;;;;;;;;5012268;28;20022;-76
2024/01/10 10:16:01;;;;;;;7.10;4.22;;;;;;;;;;5011884;28;20468;-75
2024/01/10 10:18:27;;;;;;;7.53;4.25;;;;;;;;;;5011505;28;20395;-76
2024/01/10 10:21:11;;;;;;;8.05;4.50;;;;;;;;;;5011803;28;20114;-76
2024/01/10 10:23:37;;;;;;;9.82;4.90;;;;;;;;;;5010388;28;20038;-77
2024/01/10 10:26:14;;;;;;;13.02;4.90;;;;;;;;;;5010543;28;20340;-77
2024/01/10 10:28:40;;;;;;;9.63;4.97;;;;;;;;;;5012095;28;20153;-76
2024/01/10 10:31:05;;;;;;;17.33;4.53;;;;;;;;;;5011556;28;20036;-76
2024/01/10 10:33:32;;;;;;;8.38;4.43;;;;;;;;;;5011329;28;20025;-77
2024/01/10 10:35:57;;;;;;;7.00;4.38;;;;;;;;;;5012094;28;20053;-76
2024/01/10 10:38:23;;;;;;;10.18;4.70;;;;;;;;;;5011283;28;20109;-77
2024/01/10 10:40:48;;;;;;;7.65;4.22;;;;;;;;;;5011346;28;20439;-79
2024/01/10 10:43:18;;;;;;;7.40;4.72;;;;;;;;;;5011418;28;20022;-76
2024/01/10 10:45:47;;;;;;;6.90;4.78;;;;;;;;;;5011269;28;20018;-78
2024/01/10 10:48:16;;;;;;;8.80;4.40;;;;;;;;;;5010242;28;20419;-78
2024/01/10 10:50:41;;;;;;;8.57;4.53;;;;;;;;;;5011133;28;20029;-78
2024/01/10 10:53:07;;;;;;;6.85;3.97;;;;;;;;;;5011272;28;20033;-76
2024/01/10 10:55:34;;;;;;;10.13;4.78;;;;;;;;;;5011346;28;20026;-79
2024/01/10 10:58:01;;;;;;;6.90;4.35;;;;;;;;;;5009575;28;20109;-79
2024/01/10 11:00:27;;;;;;;6.13;4.30;;;;;;;;;;5010444;28;20461;-80
2024/01/10 11:02:53;;;;;;;7.10;4.38;;;;;;;;;;5009901;28;20075;-80
2024/01/10 11:05:19;;;;;;;11.35;4.70;;;;;;;;;;5010871;28;20112;-79
2024/01/10 11:07:45;;;;;;;7.72;4.57;;;;;;;;;;5010958;28;20164;-79
2024/01/10 11:10:16;;;;;;;8.10;4.88;;;;;;;;;;5011498;28;20475;-81
2024/01/10 11:12:41;;;;;;;7.95;4.60;;;;;;;;;;5009182;28;20030;-81
2024/01/10 11:15:17;;;;;;;8.07;4.28;;;;;;;;;;5009505;28;20050;-78
2024/01/10 11:17:57;;;;;;;8.18;4.47;;;;;;;;;;5010535;28;20030;-79
2024/01/10 11:20:32;;;;;;;9.38;4.80;;;;;;;;;;5011276;28;20072;-78
2024/01/10 11:23:00;;;;;;;6.45;3.95;;;;;;;;;;5010934;28;20014;-77
2024/01/10 11:25:29;;;;;;;7.93;4.38;;;;;;;;;;5010234;28;20084;-78
2024/01/10 11:27:54;;;;;;;8.88;4.40;;;;;;;;;;5013289;28;20025;-78
2024/01/10 11:30:56;;;;;;;8.15;4.38;;;;;;;;;;5014560;28;20121;-78
2024/01/10 11:33:22;;;;;;;8.73;5.10;;;;;;;;;;5014800;28;20021;-77
2024/01/10 11:36:09;;;;;;;8.52;4.72;;;;;;;;;;5014828;28;20355;-77
2024/01/10 11:38:38;;;;;;;8.40;4.30;;;;;;;;;;5014415;28;20041;-78
2024/01/10 11:41:04;;;;;;;11.30;5.22;;;;;;;;;;5014236;28;20378;-76
2024/01/10 11:43:29;;;;;;;8.18;4.53;;;;;;;;;;5014336;28;20018;-76
2024/01/10 11:45:55;;;;;;;9.27;5.03;;;;;;;;;;5013856;28;20033;-79
2024/01/10 11:48:27;;;;;;;9.60;4.68;;;;;;;;;;5012422;28;20100;-78
2024/01/10 11:50:52;;;;;;;6.68;4.63;;;;;;;;;;5014698;28;20113;-77
2024/01/10 11:53:38;;;;;;;7.25;4.70;;;;;;;;;;5014335;28;20426;-79
2024/01/10 11:56:09;;;;;;;12.43;5.35;;;;;;;;;;5013958;28;20041;-80
2024/01/10 11:58:51;;;;;;;7.78;4.70;;;;;;;;;;5013549;28;20037;-80
2024/01/10 12:01:17;;;;;;;7.57;4.47;;;;;;;;;;5014156;28;20018;-76
2024/01/10 12:03:42;;;;;;;8.43;4.57;;;;;;;;;;5012006;28;20084;-77
2024/01/10 12:06:07;;;;;;;8.77;5.40;;;;;;;;;;5013839;28;20041;-79
2024/01/10 12:08:33;;;;;;;11.10;5.53;;;;;;;;;;5011966;28;20032;-79
2024/01/10 12:10:58;;;;;;;10.18;4.25;;;;;;;;;;5012657;28;20070;-78
2024/01/10 12:13:23;;;;;;;7.90;4.80;;;;;;;;;;5013963;28;20022;-78
2024/01/10 12:15:48;;;;;;;9.23;5.30;;;;;;;;;;5013152;28;20108;-78
2024/01/10 12:18:14;;;;;;;9.90;4.93;;;;;;;;;;5013989;28;20033;-80
2024/01/10 12:20:39;;;;;;;8.02;5.07;;;;;;;;;;5013656;28;20407;-78
2024/01/10 12:23:04;;;;;;;12.60;4.75;;;;;;;;;;5013605;28;20485;-81
2024/01/10 12:25:29;;;;;;;8.38;5.03;;;;;;;;;;5013525;28;20026;-78
2024/01/10 12:27:55;;;;;;;6.68;4.70;;;;;;;;;;5013296;28;20175;-79
2024/01/10 12:30:20;;;;;;;11.20;5.32;;;;;;;;;;5012928;28;20021;-79
2024/01/10 12:32:49;;;;;;;7.30;4.90;;;;;;;;;;5013466;28;20072;-81
2024/01/10 12:35:18;;;;;;;8.23;4.88;;;;;;;;;;5013683;28;20018;-78
2024/01/10 12:37:52;;;;;;;11.77;6.03;;;;;;;;;;5012556;28;20447;-79
2024/01/10 12:40:18;;;;;;;10.25;5.05;;;;;;;;;;5011795;28;20049;-80
2024/01/10 12:42:43;;;;;;;9.05;5.20;;;;;;;;;;5011813;28;20132;-79
2024/01/10 12:45:21;;;;;;;9.77;5.28;;;;;;;;;;5013002;28;20018;-77
2024/01/10 12:47:47;;;;;;;7.07;4.90;;;;;;;;;;5012138;28;20034;-79
2024/01/10 12:50:12;;;;;;;9.10;5.20;;;;;;;;;;5012790;28;20478;-81
2024/01/10 12:52:39;;;;;;;7.13;5.00;;;;;;;;;;5012711;28;20378;-78
2024/01/10 12:55:05;;;;;;;9.35;5.15;;;;;;;;;;5013105;28;20022;-79
2024/01/10 12:57:30;;;;;;;7.82;5.00;;;;;;;;;;5013086;28;20425;-81
2024/01/10 12:59:55;;;;;;;8.88;5.10;;;;;;;;;;5013203;28;20105;-79
2024/01/10 13:02:21;;;;;;;9.13;5.73;;;;;;;;;;5013258;28;20104;-80
2024/01/10 13:04:46;;;;;;;9.05;5.55;;;;;;;;;;5013643;28;20396;-78
2024/01/10 13:07:11;;;;;;;8.38;4.90;;;;;;;;;;5013333;28;20026;-80
2024/01/10 13:09:39;;;;;;;7.53;5.13;;;;;;;;;;5011325;28;20560;-80
2024/01/10 13:12:04;;;;;;;9.25;5.30;;;;;;;;;;5011484;28;20037;-83
2024/01/10 13:14:31;;;;;;;8.18;5.38;;;;;;;;;;5010819;28;20041;-81
2024/01/10 13:16:56;;;;;;;8.57;5.80;;;;;;;;;;5011769;28;20045;-84
2024/01/10 13:19:21;;;;;;;7.65;5.32;;;;;;;;;;5012607;28;20022;-83
2024/01/10 13:21:47;;;;;;;10.55;5.55;;;;;;;;;;5013068;28;20028;-81
2024/01/10 13:24:12;;;;;;;8.23;5.60;;;;;;;;;;5011296;28;20018;-84
2024/01/10 13:26:38;;;;;;;8.93;5.72;;;;;;;;;;5012876;28;20037;-80
2024/01/10 13:29:03;;;;;;;10.52;5.85;;;;;;;;;;5012123;28;20132;-81
2024/01/10 13:31:28;;;;;;;9.80;6.28;;;;;;;;;;5011126;28;20479;-80
2024/01/10 13:33:54;;;;;;;10.07;5.82;;;;;;;;;;5010977;28;20033;-83
2024/01/10 13:36:19;;;;;;;8.27;5.68;;;;;;;;;;5010093;28;20022;-81
2024/01/10 13:38:44;;;;;;;8.32;5.97;;;;;;;;;;5011127;28;20116;-82
2024/01/10 13:41:10;;;;;;;10.07;5.47;;;;;;;;;;5010223;28;20330;-82
2024/01/10 13:43:35;;;;;;;8.93;6.07;;;;;;;;;;5009900;28;20518;-81
2024/01/10 13:46:01;;;;;;;9.10;5.78;;;;;;;;;;5012410;28;20087;-80
2024/01/10 13:48:26;;;;;;;9.00;5.72;;;;;;;;;;5012109;28;20018;-86
2024/01/10 13:50:52;;;;;;;9.55;5.85;;;;;;;;;;5010404;28;20441;-84
2024/01/10 13:53:17;;;;;;;9.48;5.43;;;;;;;;;;4993363;28;20203;-81
2024/01/10 13:55:42;;;;;;;8.63;5.22;;;;;;;;;;5010514;28;20080;-79
2024/01/10 13:58:08;;;;;;;12.68;6.15;;;;;;;;;;5009841;28;20041;-83
2024/01/10 14:00:33;;;;;;;16.27;7.55;;;;;;;;;;5011589;28;20028;-83
2024/01/10 14:02:59;;;;;;;11.57;5.88;;;;;;;;;;5010686;28;20026;-79
2024/01/10 14:05:25;;;;;;;9.75;5.40;;;;;;;;;;5009385;28;20018;-81
2024/01/10 14:07:50;;;;;;;8.60;5.47;;;;;;;;;;5009264;28;20040;-84
2024/01/10 14:10:19;;;;;;;8.40;5.15;;;;;;;;;;5016254;28;20481;-80
2024/01/10 14:12:45;;;;;;;12.48;5.68;;;;;;;;;;5022045;28;20323;-83
2024/01/10 14:15:11;;;;;;;9.52;5.43;;;;;;;;;;5023215;28;20168;-79
2024/01/10 14:17:43;;;;;;;10.27;5.78;;;;;;;;;;5015315;28;20364;-77
2024/01/10 14:20:39;;;;;;;;;;;;;;;;;;;;;
2024/01/10 14:23:05;;;;;;;7.18;5.20;;;;;;;;;;5019131;28;20117;-83
2024/01/10 14:25:31;;;;;;;8.45;5.57;;;;;;;;;;5009743;28;20439;-82
2024/01/10 14:27:58;;;;;;;13.52;5.57;;;;;;;;;;5010108;28;20087;-80
2024/01/10 14:30:24;;;;;;;11.02;6.10;;;;;;;;;;5011402;28;20026;-79
2024/01/10 14:32:50;;;;;;;9.13;5.30;;;;;;;;;;5010887;28;20080;-80